Terminal Aerodrome Forecast
Issued by NWS

Home | Current Version | Previous Version | Text Only | Print | Product List | Glossary On
Versions: 1 2 3 4 5 6 7 8 9 10 11 12 13 14 15
000
FTUS41 KLWX 151950 AAA
TAFMTN
TAF AMD
KMTN 151950Z 1520/1618 VRB04KT 2SM -SN SCT008 OVC025
      TEMPO 1520/1521 1/2SM SN BKN008
     FM152200 VRB04KT 5SM -SN BKN035 OVC050
     FM152300 VRB04KT P6SM BKN050
     FM160100 26006KT P6SM SCT050 SCT250
     FM161100 22006KT P6SM SCT050 BKN130
     FM161500 22008G16KT P6SM SCT050 BKN130=

USA.gov is the U.S. government's official web portal to all federal, state and local government web resources and services.